createdAt,value
2022-10-19T00:02:15.268Z,15.55
2022-10-19T00:04:42.850Z,15.50
2022-10-19T00:07:11.962Z,15.27
2022-10-19T00:09:39.747Z,16.95
2022-10-19T00:12:07.349Z,17.20
2022-10-19T00:14:34.916Z,16.58
2022-10-19T00:17:02.750Z,17.40
2022-10-19T00:19:30.382Z,17.13
2022-10-19T00:21:57.890Z,17.40
2022-10-19T00:24:26.879Z,16.15
2022-10-19T00:26:54.756Z,16.63
2022-10-19T00:29:22.310Z,17.10
2022-10-19T00:31:50.325Z,17.08
2022-10-19T00:34:18.230Z,16.77
2022-10-19T00:36:46.450Z,17.25
2022-10-19T00:39:15.922Z,16.58
2022-10-19T00:41:46.968Z,16.83
2022-10-19T00:44:51.949Z,16.23
2022-10-19T00:47:23.471Z,15.73
2022-10-19T00:49:51.267Z,15.82
2022-10-19T00:52:21.941Z,16.23
2022-10-19T00:54:52.502Z,16.30
2022-10-19T00:57:22.164Z,16.02
2022-10-19T00:59:50.542Z,15.75
2022-10-19T01:02:18.541Z,16.10
2022-10-19T01:04:49.800Z,16.40
2022-10-19T01:07:17.834Z,16.13
2022-10-19T01:09:45.510Z,15.15
2022-10-19T01:12:34.114Z,15.80
2022-10-19T01:15:16.357Z,15.55
2022-10-19T01:17:54.116Z,15.70
2022-10-19T01:20:53.761Z,15.43
2022-10-19T01:23:56.780Z,15.23
2022-10-19T01:27:05.307Z,15.20
2022-10-19T01:29:51.914Z,15.10
2022-10-19T01:32:25.289Z,16.08
2022-10-19T01:35:00.957Z,15.13
2022-10-19T01:37:37.266Z,15.30
2022-10-19T01:40:11.669Z,15.70
2022-10-19T01:42:47.470Z,16.15
2022-10-19T01:45:20.964Z,15.57
2022-10-19T01:47:54.004Z,15.50
2022-10-19T01:50:29.678Z,14.50
2022-10-19T01:52:58.742Z,13.68
2022-10-19T01:55:28.955Z,15.05
2022-10-19T01:58:01.695Z,13.85
2022-10-19T02:00:33.038Z,15.90
2022-10-19T02:03:01.793Z,14.67
2022-10-19T02:05:33.482Z,14.82
2022-10-19T02:08:04.858Z,14.45
2022-10-19T02:10:36.123Z,14.55
2022-10-19T02:13:05.500Z,15.05
2022-10-19T02:15:37.281Z,15.30
2022-10-19T02:18:07.019Z,16.30
2022-10-19T02:20:37.031Z,15.00
2022-10-19T02:23:05.675Z,16.00
2022-10-19T02:25:34.258Z,15.85
2022-10-19T02:28:03.372Z,17.13
2022-10-19T02:30:31.102Z,16.88
2022-10-19T02:33:00.106Z,17.80
2022-10-19T02:35:27.945Z,17.53
2022-10-19T02:37:58.786Z,17.02
2022-10-19T02:40:28.327Z,17.95
2022-10-19T02:43:01.185Z,18.85
2022-10-19T02:45:32.012Z,19.00
2022-10-19T02:48:03.387Z,18.33
2022-10-19T02:50:31.466Z,18.92
2022-10-19T02:52:59.418Z,18.58
2022-10-19T02:55:27.263Z,19.25
2022-10-19T02:57:54.825Z,18.48
2022-10-19T03:00:22.396Z,18.85
2022-10-19T03:02:49.947Z,17.97
2022-10-19T03:05:18.851Z,17.77
2022-10-19T03:07:46.826Z,16.98
2022-10-19T03:10:14.379Z,17.15
2022-10-19T03:12:41.921Z,16.98
2022-10-19T03:15:11.631Z,17.37
2022-10-19T03:17:39.387Z,18.00
2022-10-19T03:20:08.226Z,17.88
2022-10-19T03:22:37.159Z,19.50
2022-10-19T03:25:05.268Z,20.80
2022-10-19T03:27:33.010Z,20.52
2022-10-19T03:30:00.810Z,19.75
2022-10-19T03:32:28.370Z,20.27
2022-10-19T03:34:55.934Z,21.30
2022-10-19T03:37:23.502Z,21.43
2022-10-19T03:39:52.430Z,22.45
2022-10-19T03:42:20.065Z,22.50
2022-10-19T03:44:47.631Z,23.60
2022-10-19T03:47:15.171Z,22.60
2022-10-19T03:49:43.543Z,23.10
2022-10-19T03:52:11.152Z,22.25
2022-10-19T03:54:38.747Z,22.90
2022-10-19T03:57:07.742Z,23.15
2022-10-19T03:59:35.466Z,23.50
2022-10-19T04:02:04.007Z,23.05
2022-10-19T04:04:31.528Z,23.50
2022-10-19T04:06:59.073Z,21.90
2022-10-19T04:09:26.668Z,21.67
2022-10-19T04:11:54.253Z,21.90
2022-10-19T04:14:32.781Z,22.55
2022-10-19T04:17:01.207Z,22.40
2022-10-19T04:19:28.789Z,22.15
2022-10-19T04:21:56.724Z,21.02
2022-10-19T04:24:24.434Z,21.20
2022-10-19T04:26:53.424Z,21.25
2022-10-19T04:29:29.427Z,22.00
2022-10-19T04:31:58.851Z,20.88
2022-10-19T04:34:26.392Z,21.20
2022-10-19T04:36:54.202Z,19.95
2022-10-19T04:39:21.786Z,21.63
2022-10-19T04:41:49.360Z,23.20
2022-10-19T04:44:17.026Z,22.00
2022-10-19T04:46:46.025Z,21.40
2022-10-19T04:49:16.470Z,21.00
2022-10-19T04:51:46.982Z,20.92
2022-10-19T04:54:14.580Z,20.20
2022-10-19T04:56:42.179Z,21.13
2022-10-19T04:59:10.747Z,20.30
2022-10-19T05:01:38.730Z,20.27
2022-10-19T05:04:11.231Z,17.48
2022-10-19T05:06:39.262Z,18.52
2022-10-19T05:09:07.375Z,18.00
2022-10-19T05:11:34.974Z,17.88
2022-10-19T05:14:03.190Z,17.95
2022-10-19T05:16:30.741Z,16.88
2022-10-19T05:18:59.574Z,14.43
2022-10-19T05:21:29.652Z,14.57
2022-10-19T05:23:58.437Z,13.80
2022-10-19T05:26:27.758Z,13.77
2022-10-19T05:28:57.811Z,14.27
2022-10-19T05:31:27.467Z,13.52
2022-10-19T05:33:56.093Z,12.55
2022-10-19T05:36:26.545Z,13.13
2022-10-19T05:38:57.534Z,12.38
2022-10-19T05:41:26.865Z,12.07
2022-10-19T05:43:55.999Z,11.93
2022-10-19T05:46:24.580Z,12.80
2022-10-19T05:48:52.259Z,12.13
2022-10-19T05:51:22.458Z,12.73
2022-10-19T05:53:50.383Z,12.80
2022-10-19T05:56:20.510Z,13.05
2022-10-19T05:58:48.658Z,12.20
2022-10-19T06:01:18.847Z,12.90
2022-10-19T06:03:47.364Z,13.02
2022-10-19T06:06:14.944Z,13.30
2022-10-19T06:08:42.521Z,15.85
2022-10-19T06:11:12.518Z,17.67
2022-10-19T06:13:43.521Z,17.45
2022-10-19T06:16:12.617Z,18.45
2022-10-19T06:18:40.555Z,18.63
2022-10-19T06:21:11.604Z,18.20
2022-10-19T06:23:39.384Z,17.77
2022-10-19T06:26:08.679Z,17.23
2022-10-19T06:28:37.468Z,18.75
2022-10-19T06:31:09.336Z,19.23
2022-10-19T06:33:37.750Z,19.03
2022-10-19T06:36:09.482Z,19.83
2022-10-19T06:38:37.296Z,20.98
2022-10-19T06:41:05.289Z,21.08
2022-10-19T06:43:33.402Z,22.10
2022-10-19T06:46:06.535Z,22.67
2022-10-19T06:48:34.129Z,21.35
2022-10-19T06:51:06.221Z,19.67
2022-10-19T06:53:34.418Z,19.77
2022-10-19T06:56:04.081Z,20.50
2022-10-19T06:58:31.793Z,19.70
2022-10-19T07:01:00.995Z,21.97
2022-10-19T07:03:31.038Z,22.67
2022-10-19T07:06:00.527Z,21.63
2022-10-19T07:08:30.109Z,22.35
2022-10-19T07:10:59.646Z,22.85
2022-10-19T07:13:28.877Z,22.90
2022-10-19T07:15:58.255Z,23.23
2022-10-19T07:18:26.330Z,22.38
2022-10-19T07:21:00.193Z,21.27
2022-10-19T07:23:29.674Z,22.27
2022-10-19T07:26:01.475Z,24.58
2022-10-19T07:28:31.367Z,22.80
2022-10-19T07:30:58.917Z,21.83
2022-10-19T07:33:26.454Z,20.73
2022-10-19T07:36:01.629Z,21.17
2022-10-19T07:38:29.989Z,23.10
2022-10-19T07:41:02.168Z,22.55
2022-10-19T07:43:29.985Z,20.83
2022-10-19T07:46:02.054Z,20.27
2022-10-19T07:48:29.957Z,18.92
2022-10-19T07:50:57.522Z,18.50
2022-10-19T07:53:26.448Z,20.55
2022-10-19T07:55:53.979Z,20.38
2022-10-19T07:58:21.554Z,19.75
2022-10-19T08:00:49.081Z,19.15
2022-10-19T08:03:57.522Z,19.88
2022-10-19T08:06:06.407Z,19.42
2022-10-19T08:08:36.191Z,20.83
2022-10-19T08:11:08.155Z,21.38
2022-10-19T08:13:35.687Z,22.07
2022-10-19T08:16:03.349Z,23.13
2022-10-19T08:21:03.484Z,22.85
2022-10-19T08:23:31.071Z,21.40
2022-10-19T08:26:00.128Z,21.67
2022-10-19T08:28:27.686Z,22.42
2022-10-19T08:30:58.803Z,21.38
2022-10-19T08:33:27.254Z,22.17
2022-10-19T08:35:54.850Z,21.60
2022-10-19T08:38:22.394Z,21.90
2022-10-19T08:40:50.156Z,20.57
2022-10-19T08:43:27.484Z,18.65
2022-10-19T08:46:02.273Z,16.63
2022-10-19T08:48:33.182Z,16.10
2022-10-19T08:51:01.880Z,16.88
2022-10-19T08:53:38.126Z,16.90
2022-10-19T08:56:38.928Z,17.87
2022-10-19T08:59:15.019Z,16.95
2022-10-19T09:01:47.905Z,17.00
2022-10-19T09:04:22.564Z,16.40
2022-10-19T09:07:00.637Z,15.90
2022-10-19T09:09:31.407Z,15.98
2022-10-19T09:12:04.905Z,16.38
2022-10-19T09:14:40.296Z,15.43
2022-10-19T09:17:14.541Z,14.90
2022-10-19T09:19:42.387Z,16.42
2022-10-19T09:22:19.935Z,15.70
2022-10-19T09:24:51.702Z,16.52
2022-10-19T09:27:23.001Z,16.03
2022-10-19T09:29:56.805Z,15.90
2022-10-19T09:32:28.814Z,15.57
2022-10-19T09:35:01.059Z,16.95
2022-10-19T09:39:57.855Z,15.70
2022-10-19T09:42:29.345Z,15.93
2022-10-19T09:45:00.247Z,17.15
2022-10-19T09:47:34.416Z,15.63
2022-10-19T09:50:20.235Z,16.48
2022-10-19T09:52:49.454Z,16.38
2022-10-19T09:55:29.466Z,16.90
2022-10-19T09:58:03.787Z,16.60
2022-10-19T10:00:36.873Z,16.77
2022-10-19T10:03:07.443Z,16.83
2022-10-19T10:05:37.937Z,18.92
2022-10-19T10:08:13.179Z,18.03
2022-10-19T10:10:46.204Z,22.38
2022-10-19T10:13:18.960Z,24.63
2022-10-19T10:15:50.507Z,22.85
2022-10-19T10:18:19.850Z,24.80
2022-10-19T10:20:59.244Z,23.80
2022-10-19T10:23:32.146Z,21.27
2022-10-19T10:26:01.138Z,22.17
2022-10-19T10:28:30.465Z,23.27
2022-10-19T10:31:04.442Z,25.42
2022-10-19T10:36:26.322Z,23.20
2022-10-19T10:39:04.297Z,22.70
2022-10-19T10:41:32.624Z,23.83
2022-10-19T10:44:04.848Z,22.88
2022-10-19T10:46:38.181Z,23.42
2022-10-19T10:49:08.114Z,24.27
2022-10-19T10:51:39.950Z,28.65
2022-10-19T10:54:16.809Z,29.48
2022-10-19T10:56:45.428Z,29.73
2022-10-19T10:59:19.684Z,29.38
2022-10-19T11:02:02.314Z,29.98
2022-10-19T11:04:36.408Z,36.80
2022-10-19T11:07:17.127Z,35.20
2022-10-19T11:09:51.836Z,35.03
2022-10-19T11:12:26.029Z,34.50
2022-10-19T11:15:01.739Z,36.78
2022-10-19T11:17:34.033Z,36.97
2022-10-19T11:20:01.937Z,37.92
2022-10-19T11:22:36.231Z,40.80
2022-10-19T11:25:20.799Z,40.72
2022-10-19T11:28:00.575Z,38.60
2022-10-19T11:30:28.589Z,38.35
2022-10-19T11:33:05.189Z,35.50
2022-10-19T11:35:47.659Z,31.25
2022-10-19T11:38:35.658Z,26.80
2022-10-19T11:41:18.682Z,22.73
2022-10-19T11:44:03.980Z,21.63
2022-10-19T11:46:40.209Z,20.83
2022-10-19T11:49:24.933Z,19.88
2022-10-19T11:51:57.468Z,19.33
2022-10-19T11:54:35.991Z,19.13
2022-10-19T11:57:11.844Z,17.33
2022-10-19T12:00:00.182Z,14.75
2022-10-19T12:03:12.250Z,14.13
2022-10-19T12:05:55.250Z,13.18
2022-10-19T12:08:34.398Z,12.23
2022-10-19T12:11:12.791Z,12.02
2022-10-19T12:13:43.227Z,10.73
2022-10-19T12:16:12.625Z,10.68
2022-10-19T12:18:44.557Z,9.60
2022-10-19T12:21:18.970Z,8.82
2022-10-19T12:23:47.994Z,8.13
2022-10-19T12:28:54.568Z,7.10
2022-10-19T12:31:22.932Z,6.30
2022-10-19T12:33:57.808Z,6.60
2022-10-19T12:36:35.897Z,6.25
2022-10-19T12:39:13.190Z,7.15
2022-10-19T12:41:46.926Z,6.80
2022-10-19T12:44:41.457Z,6.97
2022-10-19T12:47:12.427Z,6.63
2022-10-19T12:49:48.771Z,6.80
2022-10-19T12:52:35.490Z,7.30
2022-10-19T12:55:24.882Z,8.00
2022-10-19T12:58:01.126Z,11.20
2022-10-19T13:00:32.052Z,11.90
2022-10-19T13:03:03.891Z,12.65
2022-10-19T13:05:33.289Z,15.45
2022-10-19T13:08:07.986Z,17.67
2022-10-19T13:10:38.649Z,17.00
2022-10-19T13:13:06.542Z,16.23
2022-10-19T13:15:52.709Z,15.95
2022-10-19T13:19:07.098Z,17.55
2022-10-19T13:22:24.141Z,16.63
2022-10-19T13:25:28.363Z,15.77
2022-10-19T13:27:58.075Z,16.73
2022-10-19T13:31:07.071Z,15.00
2022-10-19T13:33:45.847Z,16.40
2022-10-19T13:36:14.008Z,17.85
2022-10-19T13:38:44.254Z,16.23
2022-10-19T13:41:18.312Z,16.13
2022-10-19T13:43:54.217Z,17.65
2022-10-19T13:46:27.452Z,15.90
2022-10-19T13:49:22.720Z,15.38
2022-10-19T13:52:04.634Z,13.60
2022-10-19T13:54:59.132Z,12.43
2022-10-19T13:57:47.817Z,12.65
2022-10-19T14:00:19.701Z,12.40
2022-10-19T14:03:19.638Z,11.40
2022-10-19T14:06:18.447Z,11.75
2022-10-19T14:09:10.199Z,11.85
2022-10-19T14:11:40.830Z,12.25
2022-10-19T14:14:14.767Z,11.70
2022-10-19T14:16:59.806Z,11.38
2022-10-19T14:19:33.678Z,11.13
2022-10-19T14:22:02.783Z,10.10
2022-10-19T14:24:32.863Z,11.03
2022-10-19T14:27:02.903Z,12.82
2022-10-19T14:29:34.639Z,12.25
2022-10-19T14:32:02.491Z,11.48
2022-10-19T14:34:30.119Z,10.60
2022-10-19T14:36:57.744Z,10.25
2022-10-19T14:39:30.604Z,9.68
2022-10-19T14:42:00.459Z,10.13
2022-10-19T14:44:42.279Z,10.52
2022-10-19T14:47:22.431Z,10.32
2022-10-19T14:49:50.689Z,9.80
2022-10-19T14:52:25.567Z,9.57
2022-10-19T14:54:56.586Z,8.65
2022-10-19T14:57:29.481Z,7.53
2022-10-19T15:00:01.780Z,7.18
2022-10-19T15:02:33.155Z,6.85
2022-10-19T15:05:04.366Z,6.40
2022-10-19T15:07:38.077Z,6.60
2022-10-19T15:10:09.162Z,5.93
2022-10-19T15:12:40.887Z,5.90
2022-10-19T15:15:16.409Z,6.50
2022-10-19T15:17:52.311Z,8.18
2022-10-19T15:20:29.405Z,6.93
2022-10-19T15:22:57.926Z,5.93
2022-10-19T15:25:33.859Z,5.40
2022-10-19T15:28:19.827Z,5.00
2022-10-19T15:30:59.203Z,5.30
2022-10-19T15:33:27.038Z,5.45
2022-10-19T15:36:06.849Z,5.47
2022-10-19T15:38:35.586Z,5.10
2022-10-19T15:41:05.210Z,5.05
2022-10-19T15:43:54.973Z,4.78
2022-10-19T15:46:34.684Z,4.78
2022-10-19T15:49:12.372Z,4.22
2022-10-19T15:51:47.576Z,3.55
2022-10-19T15:54:17.208Z,4.00
2022-10-19T15:56:46.553Z,4.10
2022-10-19T15:59:17.343Z,3.83
2022-10-19T16:01:52.519Z,4.15
2022-10-19T16:04:22.710Z,4.20
2022-10-19T16:06:50.313Z,3.88
2022-10-19T16:09:19.856Z,3.60
2022-10-19T16:11:48.246Z,4.10
2022-10-19T16:16:45.662Z,3.88
2022-10-19T16:19:13.221Z,3.80
2022-10-19T16:21:40.929Z,3.70
2022-10-19T16:24:08.555Z,3.95
2022-10-19T16:26:36.114Z,3.90
2022-10-19T16:29:03.691Z,4.15
2022-10-19T16:31:31.705Z,5.05
2022-10-19T16:34:00.731Z,4.32
2022-10-19T16:36:28.291Z,4.10
2022-10-19T16:38:55.861Z,4.40
2022-10-19T16:41:23.659Z,4.05
2022-10-19T16:43:55.599Z,4.30
2022-10-19T16:46:23.703Z,4.47
2022-10-19T16:48:51.568Z,4.63
2022-10-19T16:51:35.342Z,4.90
2022-10-19T16:54:04.305Z,4.67
2022-10-19T16:56:33.024Z,4.60
2022-10-19T16:59:02.945Z,5.13
2022-10-19T17:01:31.865Z,5.07
2022-10-19T17:03:59.931Z,5.38
2022-10-19T17:06:29.458Z,5.95
2022-10-19T17:11:45.878Z,5.78
2022-10-19T17:14:13.991Z,5.63
2022-10-19T17:16:41.830Z,5.50
2022-10-19T17:19:11.232Z,5.37
2022-10-19T17:21:42.129Z,5.43
2022-10-19T17:24:20.239Z,5.68
2022-10-19T17:26:49.826Z,6.60
2022-10-19T17:29:17.619Z,5.85
2022-10-19T17:31:45.355Z,6.50
2022-10-19T17:34:13.201Z,7.00
2022-10-19T17:36:44.488Z,7.20
2022-10-19T17:39:14.545Z,6.78
2022-10-19T17:41:42.109Z,6.40
2022-10-19T17:44:09.765Z,5.93
2022-10-19T17:46:37.476Z,5.93
2022-10-19T17:49:05.421Z,5.43
2022-10-19T17:51:36.119Z,5.32
2022-10-19T17:54:07.476Z,6.25
2022-10-19T17:56:35.483Z,5.70
2022-10-19T17:59:03.665Z,5.53
2022-10-19T18:01:31.656Z,6.10
2022-10-19T18:03:59.310Z,6.10
2022-10-19T18:06:29.454Z,6.30
2022-10-19T18:08:58.524Z,5.97
2022-10-19T18:11:29.287Z,6.00
2022-10-19T18:13:58.386Z,6.10
2022-10-19T18:16:28.542Z,5.95
2022-10-19T18:18:58.906Z,6.10
2022-10-19T18:21:30.058Z,6.15
2022-10-19T18:23:59.782Z,6.10
2022-10-19T18:26:30.956Z,6.75
2022-10-19T18:29:00.761Z,6.60
2022-10-19T18:31:30.659Z,6.70
2022-10-19T18:34:02.846Z,6.78
2022-10-19T18:36:31.210Z,6.93
2022-10-19T18:39:01.066Z,6.90
2022-10-19T18:41:30.737Z,6.88
2022-10-19T18:44:01.220Z,6.90
2022-10-19T18:46:29.104Z,6.88
2022-10-19T18:48:56.911Z,6.88
2022-10-19T18:51:25.092Z,7.43
2022-10-19T18:53:53.078Z,7.32
2022-10-19T18:56:22.443Z,6.78
2022-10-19T18:58:52.189Z,6.68
2022-10-19T19:01:22.814Z,6.88
2022-10-19T19:03:53.747Z,7.10
2022-10-19T19:06:23.489Z,6.88
2022-10-19T19:08:52.075Z,7.00
2022-10-19T19:11:21.642Z,7.43
2022-10-19T19:13:52.178Z,6.95
2022-10-19T19:16:20.297Z,7.00
2022-10-19T19:18:48.536Z,7.00
2022-10-19T19:21:18.409Z,7.85
2022-10-19T19:23:46.527Z,7.32
2022-10-19T19:26:15.114Z,7.38
2022-10-19T19:28:45.272Z,7.30
2022-10-19T19:31:16.826Z,7.60
2022-10-19T19:33:44.952Z,8.10
2022-10-19T19:36:14.910Z,7.85
2022-10-19T19:38:42.732Z,7.63
2022-10-19T19:41:13.524Z,7.75
2022-10-19T19:43:42.444Z,7.82
2022-10-19T19:46:13.367Z,7.68
2022-10-19T19:48:43.562Z,7.75
2022-10-19T19:51:13.367Z,7.40
2022-10-19T19:53:41.556Z,8.10
2022-10-19T19:56:11.026Z,8.88
2022-10-19T19:58:38.999Z,8.32
2022-10-19T20:01:12.430Z,9.75
2022-10-19T20:03:43.328Z,8.57
2022-10-19T20:06:11.414Z,9.30
2022-10-19T20:08:39.589Z,9.20
2022-10-19T20:11:09.345Z,9.05
2022-10-19T20:13:37.114Z,8.90
2022-10-19T20:16:09.277Z,9.13
2022-10-19T20:18:37.082Z,8.23
2022-10-19T20:21:06.866Z,8.77
2022-10-19T20:23:34.665Z,8.82
2022-10-19T20:26:02.374Z,9.57
2022-10-19T20:28:32.393Z,8.23
2022-10-19T20:31:01.582Z,8.13
2022-10-19T20:33:30.680Z,8.02
2022-10-19T20:35:58.290Z,8.55
2022-10-19T20:38:27.567Z,9.63
2022-10-19T20:40:55.111Z,9.10
2022-10-19T20:43:22.658Z,9.30
2022-10-19T20:45:50.191Z,9.40
2022-10-19T20:48:17.761Z,10.70
2022-10-19T20:50:45.376Z,10.70
2022-10-19T20:53:12.921Z,10.25
2022-10-19T20:55:41.888Z,10.03
2022-10-19T20:58:09.423Z,10.35
2022-10-19T21:00:36.982Z,10.65
2022-10-19T21:03:04.706Z,9.77
2022-10-19T21:05:32.236Z,9.60
2022-10-19T21:07:59.808Z,10.07
2022-10-19T21:10:27.474Z,9.90
2022-10-19T21:12:56.341Z,9.30
2022-10-19T21:15:24.282Z,9.82
2022-10-19T21:17:51.815Z,10.38
2022-10-19T21:20:20.330Z,10.10
2022-10-19T21:22:47.856Z,10.00
2022-10-19T21:25:15.595Z,9.60
2022-10-19T21:27:43.179Z,10.15
2022-10-19T21:30:13.593Z,10.25
2022-10-19T21:32:41.155Z,9.25
2022-10-19T21:35:09.116Z,8.95
2022-10-19T21:37:36.964Z,9.82
2022-10-19T21:40:05.175Z,11.00
2022-10-19T21:42:32.742Z,10.03
2022-10-19T21:45:11.658Z,10.52
2022-10-19T21:47:49.961Z,10.25
2022-10-19T21:50:18.068Z,9.32
2022-10-19T21:52:45.626Z,9.85
2022-10-19T21:55:13.170Z,10.23
2022-10-19T21:57:40.707Z,11.00
2022-10-19T22:00:09.177Z,10.68
2022-10-19T22:02:36.698Z,11.25
2022-10-19T22:05:06.152Z,10.77
2022-10-19T22:07:33.988Z,11.27
2022-10-19T22:10:01.679Z,11.73
2022-10-19T22:12:29.310Z,12.23
2022-10-19T22:14:56.879Z,12.70
2022-10-19T22:17:24.414Z,12.38
2022-10-19T22:19:52.001Z,12.43
2022-10-19T22:22:20.927Z,12.63
2022-10-19T22:24:48.509Z,13.00
2022-10-19T22:27:16.214Z,12.80
2022-10-19T22:29:44.002Z,13.63
2022-10-19T22:32:11.674Z,13.00
2022-10-19T22:34:40.027Z,14.25
2022-10-19T22:37:07.565Z,13.63
2022-10-19T22:39:36.510Z,13.50
2022-10-19T22:42:04.217Z,14.02
2022-10-19T22:44:32.422Z,14.05
2022-10-19T22:47:00.399Z,13.57
2022-10-19T22:49:27.934Z,14.32
2022-10-19T22:51:55.465Z,13.97
2022-10-19T22:54:23.037Z,13.70
2022-10-19T22:56:51.951Z,14.23
2022-10-19T22:59:19.595Z,13.82
2022-10-19T23:01:47.212Z,14.60
2022-10-19T23:04:14.927Z,14.67
2022-10-19T23:06:42.551Z,14.55
2022-10-19T23:09:10.124Z,13.90
2022-10-19T23:11:37.680Z,13.15
2022-10-19T23:14:06.557Z,14.80
2022-10-19T23:16:34.077Z,13.63
2022-10-19T23:19:01.647Z,13.38
2022-10-19T23:21:29.251Z,12.23
2022-10-19T23:23:56.843Z,13.60
2022-10-19T23:26:25.504Z,13.63
2022-10-19T23:28:53.362Z,13.45
2022-10-19T23:31:24.710Z,13.80
2022-10-19T23:33:52.837Z,12.90
2022-10-19T23:36:21.894Z,12.80
2022-10-19T23:38:50.702Z,12.70
2022-10-19T23:41:19.307Z,13.10
2022-10-19T23:43:47.253Z,12.80
2022-10-19T23:46:14.984Z,12.98
2022-10-19T23:48:44.085Z,13.43
2022-10-19T23:51:13.538Z,13.45
2022-10-19T23:53:43.210Z,14.20
2022-10-19T23:56:13.672Z,13.02
2022-10-19T23:58:41.485Z,12.88
